Terminal Aerodrome Forecast
Issued by NWS

Home | Current Version | Previous Version | Text Only | Print | Product List | Glossary On
Versions: 1 2 3 4 5 6 7 8 9 10 11 12 13 14
000
FTUS45 KFGZ 070526
TAFGCN
TAF
KGCN 070526Z 0706/0806 VRB03KT P6SM FEW120
     FM071700 24010KT P6SM SCT100 PROB30 0718/0724 -TSRA BKN080CB
     FM080300 VRB03KT P6SM FEW070 SCT120=

USA.gov is the U.S. government's official web portal to all federal, state and local government web resources and services.